Time;durP1;ratioP1;P1;durP2;ratioP2;P2;SDS_P1;SDS_P2;PMS_P1;PMS_P2;Temp;Humidity;BMP_temperature;BMP_pressure;BME280_temperature;BME280_humidity;BME280_pressure;Samples;Min_cycle;Max_cycle;Signal;HPM_P1;HPM_P2
2021/10/15 00:00:31;;;;;;;28.90;15.98;;;;;;;7.73;69.01;99215.00;5092291;28;20085;-55
2021/10/15 00:03:00;;;;;;;19.58;14.18;;;;;;;7.73;69.48;99215.00;5092198;28;20020;-55
2021/10/15 00:05:28;;;;;;;19.13;14.35;;;;;;;7.65;69.44;99217.63;5092187;28;20032;-54
2021/10/15 00:07:54;;;;;;;28.92;19.98;;;;;;;7.58;69.30;99212.25;5090983;28;20012;-55
2021/10/15 00:10:21;;;;;;;20.15;17.83;;;;;;;7.62;68.75;99204.91;5092188;28;20464;-53
2021/10/15 00:12:47;;;;;;;31.35;22.83;;;;;;;7.69;68.79;99209.28;5092222;28;20439;-55
2021/10/15 00:15:12;;;;;;;21.30;14.77;;;;;;;7.73;68.48;99209.78;5091983;28;20024;-55
2021/10/15 00:17:38;;;;;;;22.98;14.15;;;;;;;7.74;68.44;99203.53;5090707;28;20517;-54
2021/10/15 00:20:06;;;;;;;26.98;15.10;;;;;;;7.78;68.77;99200.41;5092003;28;20040;-56
2021/10/15 00:22:32;;;;;;;20.20;14.02;;;;;;;7.75;68.39;99213.84;5092282;28;20028;-56
2021/10/15 00:24:58;;;;;;;18.10;13.10;;;;;;;7.80;68.20;99211.50;5091998;28;20024;-56
2021/10/15 00:27:24;;;;;;;17.55;13.60;;;;;;;7.85;68.15;99203.19;5090609;28;20024;-56
2021/10/15 00:29:50;;;;;;;22.75;14.15;;;;;;;7.87;67.83;99206.44;5091955;28;20020;-55
2021/10/15 00:32:15;;;;;;;17.98;12.20;;;;;;;7.91;68.01;99201.69;5091882;28;20080;-54
2021/10/15 00:34:42;;;;;;;20.77;13.35;;;;;;;7.93;67.42;99192.69;5091911;28;20588;-56
2021/10/15 00:37:09;;;;;;;25.23;14.93;;;;;;;7.89;67.61;99195.81;5091818;28;20078;-55
2021/10/15 00:39:35;;;;;;;21.38;14.48;;;;;;;7.86;67.53;99198.75;5090578;28;20020;-53
2021/10/15 00:42:02;;;;;;;24.73;13.80;;;;;;;7.83;67.30;99197.31;5090479;28;20390;-55
2021/10/15 00:44:28;;;;;;;19.50;14.82;;;;;;;7.84;67.03;99200.75;5091932;28;20097;-54
2021/10/15 00:46:54;;;;;;;20.80;13.82;;;;;;;7.88;67.23;99191.56;5091823;28;20495;-54
2021/10/15 00:49:20;;;;;;;19.95;14.02;;;;;;;7.87;67.21;99189.94;5091826;28;20613;-54
2021/10/15 00:51:46;;;;;;;24.15;15.45;;;;;;;7.77;67.71;99184.94;5091732;28;20024;-54
2021/10/15 00:54:14;;;;;;;23.00;14.43;;;;;;;7.78;67.86;99179.50;5092538;28;20493;-55
2021/10/15 00:56:43;;;;;;;24.02;14.07;;;;;;;7.88;67.59;99178.50;5095853;28;20012;-55
2021/10/15 00:59:10;;;;;;;17.08;13.63;;;;;;;7.93;67.28;99165.75;5095729;28;20397;-54
2021/10/15 01:01:36;;;;;;;20.38;13.25;;;;;;;7.94;67.34;99169.97;5095670;28;20413;-57
2021/10/15 01:04:03;;;;;;;19.30;13.27;;;;;;;7.93;67.86;99173.59;5095716;28;20515;-55
2021/10/15 01:06:31;;;;;;;21.33;14.80;;;;;;;7.79;67.96;99181.16;5095618;28;20394;-54
2021/10/15 01:08:58;;;;;;;19.25;14.48;;;;;;;7.65;68.13;99168.81;5094245;28;20016;-54
2021/10/15 01:11:24;;;;;;;20.77;14.38;;;;;;;7.55;69.26;99165.59;5095558;28;20111;-54
2021/10/15 01:13:50;;;;;;;18.15;14.40;;;;;;;7.51;69.39;99169.53;5095556;28;20027;-55
2021/10/15 01:16:17;;;;;;;19.05;15.23;;;;;;;7.50;69.83;99163.47;5094160;28;20020;-54
2021/10/15 01:18:44;;;;;;;21.73;12.88;;;;;;;7.55;69.43;99158.56;5095453;28;20103;-54
2021/10/15 01:21:11;;;;;;;17.98;13.02;;;;;;;7.70;69.18;99158.66;5094987;28;20563;-55
2021/10/15 01:23:39;;;;;;;19.58;13.15;;;;;;;7.86;69.61;99154.34;5095371;28;20028;-56
2021/10/15 01:26:05;;;;;;;16.50;12.85;;;;;;;7.96;68.83;99147.09;5095136;28;20099;-54
2021/10/15 01:28:32;;;;;;;17.90;11.80;;;;;;;7.95;68.66;99145.50;5095250;28;20115;-55
2021/10/15 01:31:00;;;;;;;17.98;11.90;;;;;;;7.94;68.86;99138.63;5095099;28;20530;-54
2021/10/15 01:33:27;;;;;;;16.63;11.73;;;;;;;7.96;68.32;99136.66;5095172;28;20020;-55
2021/10/15 01:35:52;;;;;;;14.77;12.15;;;;;;;7.98;68.61;99137.28;5094034;28;20035;-54
2021/10/15 01:38:18;;;;;;;19.75;12.13;;;;;;;8.06;68.03;99134.63;5095085;28;20479;-55
2021/10/15 01:40:45;;;;;;;16.70;11.55;;;;;;;8.11;67.87;99127.09;5094924;28;20020;-56
2021/10/15 01:43:18;;;;;;;19.85;11.68;;;;;;;8.14;68.06;99121.50;5093658;28;20100;-55
2021/10/15 01:45:44;;;;;;;13.38;11.60;;;;;;;8.19;68.04;99124.41;5094898;28;20028;-54
2021/10/15 01:48:10;;;;;;;16.65;11.07;;;;;;;8.12;67.76;99118.25;5093550;28;20107;-55
2021/10/15 01:50:36;;;;;;;14.18;11.18;;;;;;;8.10;67.75;99119.41;5093539;28;20055;-55
2021/10/15 01:53:02;;;;;;;16.88;12.60;;;;;;;8.08;67.70;99118.78;5094734;28;20118;-54
2021/10/15 01:55:28;;;;;;;15.70;10.07;;;;;;;8.11;68.04;99119.25;5094749;28;20473;-54
2021/10/15 01:57:53;;;;;;;12.82;10.60;;;;;;;8.02;68.29;99104.59;5094628;28;20108;-54
2021/10/15 02:00:19;;;;;;;14.25;10.75;;;;;;;7.83;68.25;99110.25;5094557;28;20030;-55
2021/10/15 02:02:45;;;;;;;13.00;9.98;;;;;;;7.71;69.38;99107.25;5094456;28;20493;-54
2021/10/15 02:05:15;;;;;;;14.90;11.05;;;;;;;7.60;69.44;99106.59;5093545;28;20035;-55
2021/10/15 02:07:42;;;;;;;16.23;10.57;;;;;;;7.62;69.59;99098.59;5094526;28;20074;-54
2021/10/15 02:10:11;;;;;;;12.23;10.35;;;;;;;7.65;69.42;99098.28;5094413;28;20052;-53
2021/10/15 02:12:38;;;;;;;14.43;10.27;;;;;;;7.67;69.88;99082.44;5094337;28;20030;-55
2021/10/15 02:15:08;;;;;;;13.15;9.95;;;;;;;7.72;69.75;99085.34;5094367;28;20020;-56
2021/10/15 02:17:34;;;;;;;15.07;9.68;;;;;;;7.68;69.56;99084.06;5093010;28;20024;-54
2021/10/15 02:20:00;;;;;;;13.70;9.95;;;;;;;7.70;69.41;99087.31;5092633;28;20044;-55
2021/10/15 02:22:26;;;;;;;10.93;9.57;;;;;;;7.64;69.49;99075.75;5094152;28;20024;-54
2021/10/15 02:24:52;;;;;;;14.77;9.27;;;;;;;7.67;69.30;99075.41;5094145;28;20020;-54
2021/10/15 02:27:17;;;;;;;10.65;8.93;;;;;;;7.78;69.93;99071.59;5094092;28;20043;-55
2021/10/15 02:29:43;;;;;;;12.57;9.27;;;;;;;7.93;69.85;99059.41;5093975;28;20081;-54
2021/10/15 02:32:09;;;;;;;12.68;9.00;;;;;;;8.03;68.83;99053.97;5092655;28;20031;-54
2021/10/15 02:34:35;;;;;;;12.90;9.23;;;;;;;8.14;68.86;99063.19;5094000;28;20103;-55
2021/10/15 02:37:01;;;;;;;16.23;8.80;;;;;;;8.26;68.30;99059.16;5093869;28;20435;-54
2021/10/15 02:39:26;;;;;;;14.35;9.07;;;;;;;8.38;67.70;99065.59;5093886;28;20020;-55
2021/10/15 02:41:52;;;;;;;17.45;9.18;;;;;;;8.49;67.62;99063.56;5093732;28;20028;-55
2021/10/15 02:44:18;;;;;;;13.30;8.25;;;;;;;8.55;67.67;99063.69;5092402;28;20028;-55
2021/10/15 02:46:44;;;;;;;11.95;8.00;;;;;;;8.63;67.01;99064.59;5093717;28;20028;-55
2021/10/15 02:49:10;;;;;;;9.65;8.15;;;;;;;8.61;66.72;99064.75;5092336;28;20450;-54
2021/10/15 02:51:36;;;;;;;16.58;9.55;;;;;;;8.42;66.74;99055.63;5093860;28;20072;-54
2021/10/15 02:54:05;;;;;;;10.80;8.10;;;;;;;8.36;67.60;99049.25;5092249;28;20024;-54
2021/10/15 02:56:32;;;;;;;14.45;8.40;;;;;;;8.41;66.87;99048.78;5092215;28;20024;-56
2021/10/15 02:58:57;;;;;;;9.80;8.02;;;;;;;8.50;66.91;99052.94;5093514;28;20603;-54
2021/10/15 03:01:24;;;;;;;14.65;9.15;;;;;;;8.47;67.16;99045.47;5093342;28;20036;-55
2021/10/15 03:03:50;;;;;;;10.43;8.23;;;;;;;8.39;67.26;99042.84;5093433;28;20032;-55
2021/10/15 03:06:17;;;;;;;10.73;7.53;;;;;;;8.30;66.70;99038.72;5093636;28;20077;-55
2021/10/15 03:08:43;;;;;;;15.05;10.50;;;;;;;8.14;67.19;99035.22;5093557;28;20413;-55
2021/10/15 03:11:09;;;;;;;11.05;8.43;;;;;;;8.07;68.22;99034.31;5093227;28;20099;-54
2021/10/15 03:13:35;;;;;;;16.20;9.60;;;;;;;8.02;67.90;99035.81;5091894;28;20115;-54
2021/10/15 03:16:01;;;;;;;13.32;9.75;;;;;;;7.97;68.40;99038.97;5093109;28;20028;-54
2021/10/15 03:18:27;;;;;;;15.90;9.35;;;;;;;7.83;68.71;99032.69;5093106;28;20379;-55
2021/10/15 03:20:53;;;;;;;16.65;9.95;;;;;;;7.83;68.79;99031.88;5091340;28;20054;-54
2021/10/15 03:23:18;;;;;;;17.00;8.23;;;;;;;7.90;69.14;99030.19;5093016;28;20016;-55
2021/10/15 03:25:44;;;;;;;11.52;8.57;;;;;;;8.03;68.46;99026.97;5091760;28;20023;-54
2021/10/15 03:28:10;;;;;;;14.05;9.88;;;;;;;8.12;68.55;99029.38;5092975;28;20031;-54
2021/10/15 03:30:36;;;;;;;13.05;9.40;;;;;;;8.24;68.52;99034.19;5093151;28;20024;-54
2021/10/15 03:33:03;;;;;;;13.65;8.27;;;;;;;8.27;67.64;99033.81;5092854;28;20171;-54
2021/10/15 03:35:29;;;;;;;11.57;8.40;;;;;;;8.25;67.30;99028.78;5091509;28;20201;-56
2021/10/15 03:37:55;;;;;;;12.32;8.45;;;;;;;8.23;67.44;99028.16;5092731;28;20016;-56
2021/10/15 03:40:21;;;;;;;13.75;9.07;;;;;;;8.19;67.77;99022.47;5092893;28;20389;-54
2021/10/15 03:42:47;;;;;;;10.95;9.48;;;;;;;8.21;67.66;99024.91;5092534;28;20016;-54
2021/10/15 03:45:12;;;;;;;16.60;9.00;;;;;;;8.27;68.14;99025.97;5092578;28;20107;-54
2021/10/15 03:47:39;;;;;;;12.75;9.43;;;;;;;8.35;67.56;99026.72;5092593;28;20052;-55
2021/10/15 03:50:06;;;;;;;14.52;9.15;;;;;;;8.35;67.45;99020.66;5092442;28;20034;-56
2021/10/15 03:52:32;;;;;;;16.98;9.25;;;;;;;8.36;67.49;99032.78;5092462;28;20110;-55
2021/10/15 03:54:58;;;;;;;13.43;7.75;;;;;;;8.42;67.17;99032.09;5091064;28;20115;-54
2021/10/15 03:57:24;;;;;;;13.23;9.25;;;;;;;8.47;67.85;99035.00;5092330;28;20024;-54
2021/10/15 03:59:49;;;;;;;14.18;9.70;;;;;;;8.52;67.47;99032.66;5092413;28;20020;-55
2021/10/15 04:02:15;;;;;;;13.77;10.30;;;;;;;8.49;67.00;99032.19;5092214;28;20027;-54
2021/10/15 04:04:41;;;;;;;16.10;9.57;;;;;;;8.46;67.29;99030.75;5091126;28;20110;-55
2021/10/15 04:07:07;;;;;;;12.50;8.40;;;;;;;8.48;67.68;99031.38;5092551;28;20098;-54
2021/10/15 04:09:33;;;;;;;12.85;10.13;;;;;;;8.54;67.99;99035.09;5092238;28;20026;-54
2021/10/15 04:11:58;;;;;;;11.48;7.70;;;;;;;8.60;67.76;99037.78;5092143;28;20032;-56
2021/10/15 04:14:25;;;;;;;16.77;8.30;;;;;;;8.62;67.64;99042.06;5092192;28;20111;-56
2021/10/15 04:16:51;;;;;;;12.07;7.68;;;;;;;8.63;67.76;99039.22;5092072;28;20482;-55
2021/10/15 04:19:16;;;;;;;13.80;9.13;;;;;;;8.61;67.39;99035.97;5092024;28;20077;-56
2021/10/15 04:21:43;;;;;;;13.77;9.25;;;;;;;8.49;67.16;99037.41;5091745;28;20485;-55
2021/10/15 04:24:09;;;;;;;11.23;9.60;;;;;;;8.32;67.92;99031.50;5090696;28;20024;-55
2021/10/15 04:26:35;;;;;;;14.18;10.63;;;;;;;8.20;68.22;99033.72;5091960;28;20024;-55
2021/10/15 04:29:00;;;;;;;13.32;10.60;;;;;;;8.13;68.66;99027.56;5091550;28;20028;-55
2021/10/15 04:31:26;;;;;;;16.25;10.52;;;;;;;8.04;68.49;99032.03;5091839;28;20028;-55
2021/10/15 04:33:54;;;;;;;17.45;9.45;;;;;;;7.92;68.98;99023.81;5091866;28;20517;-55
2021/10/15 04:36:19;;;;;;;11.48;9.10;;;;;;;7.88;69.29;99026.94;5091809;28;20024;-55
2021/10/15 04:38:46;;;;;;;12.70;9.80;;;;;;;7.83;69.85;99021.41;5091832;28;20028;-55
2021/10/15 04:41:12;;;;;;;11.25;7.95;;;;;;;7.73;70.79;99011.22;5091689;28;20020;-54
2021/10/15 04:43:38;;;;;;;12.35;8.35;;;;;;;7.78;70.23;99014.91;5091865;28;20051;-54
2021/10/15 04:46:04;;;;;;;13.80;9.02;;;;;;;7.84;70.43;99013.41;5091989;28;20067;-55
2021/10/15 04:48:30;;;;;;;22.30;14.88;;;;;;;7.83;70.90;99010.97;5091809;28;20459;-55
2021/10/15 04:50:56;;;;;;;15.85;8.65;;;;;;;7.74;70.54;99010.22;5091736;28;20056;-56
2021/10/15 04:53:22;;;;;;;12.93;9.07;;;;;;;7.60;70.51;99007.34;5091719;28;20503;-54
2021/10/15 04:55:48;;;;;;;11.80;8.35;;;;;;;7.49;70.93;99004.34;5091696;28;20024;-55
2021/10/15 04:58:14;;;;;;;14.63;9.35;;;;;;;7.40;71.39;98999.19;5091732;28;20028;-55
2021/10/15 05:00:39;;;;;;;13.73;9.23;;;;;;;7.42;71.38;99006.81;5090333;28;20063;-54
2021/10/15 05:03:05;;;;;;;11.00;7.25;;;;;;;7.40;71.93;99001.78;5091583;28;20020;-54
2021/10/15 05:05:31;;;;;;;15.13;8.65;;;;;;;7.36;72.11;99004.88;5090322;28;20023;-54
2021/10/15 05:07:57;;;;;;;16.80;8.95;;;;;;;7.64;72.16;99007.81;5091829;28;20103;-55
2021/10/15 05:10:25;;;;;;;12.23;8.68;;;;;;;7.91;71.23;99006.50;5090274;28;20028;-56
2021/10/15 05:12:52;;;;;;;12.60;7.88;;;;;;;8.04;70.13;99010.31;5091814;28;20447;-55
2021/10/15 05:15:20;;;;;;;12.13;8.43;;;;;;;8.04;70.25;98998.06;5091538;28;20030;-55
2021/10/15 05:17:47;;;;;;;20.58;8.90;;;;;;;8.12;69.46;99000.59;5091547;28;20428;-55
2021/10/15 05:20:16;;;;;;;15.85;7.70;;;;;;;8.30;69.24;98997.69;5091196;28;20085;-55
2021/10/15 05:22:45;;;;;;;15.93;8.02;;;;;;;8.42;69.14;99000.72;5090037;28;20042;-55
2021/10/15 05:25:12;;;;;;;14.82;8.10;;;;;;;8.54;68.54;98998.47;5091426;28;20516;-55
2021/10/15 05:27:38;;;;;;;17.85;8.60;;;;;;;8.58;68.00;98994.50;5091458;28;20021;-55
2021/10/15 05:30:09;;;;;;;12.65;8.10;;;;;;;8.56;67.87;98988.63;5090142;28;20031;-55
2021/10/15 05:32:36;;;;;;;13.18;7.85;;;;;;;8.54;68.47;98993.22;5091705;28;20090;-55
2021/10/15 05:35:03;;;;;;;14.40;8.00;;;;;;;8.57;68.20;98988.47;5090131;28;20013;-56
2021/10/15 05:37:28;;;;;;;12.07;8.35;;;;;;;8.67;67.84;98982.13;5091374;28;20084;-54
2021/10/15 05:39:54;;;;;;;10.73;7.53;;;;;;;8.72;67.72;98990.28;5091365;28;20102;-56
2021/10/15 05:42:20;;;;;;;12.32;8.25;;;;;;;8.66;67.32;98985.75;5094958;28;20482;-55
2021/10/15 05:44:47;;;;;;;16.17;8.32;;;;;;;8.68;67.83;98987.19;5094973;28;20023;-54
2021/10/15 05:47:14;;;;;;;15.85;8.13;;;;;;;8.79;68.03;98986.75;5094899;28;20038;-55
2021/10/15 05:49:40;;;;;;;19.45;8.73;;;;;;;8.80;67.42;98990.16;5094869;28;20028;-55
2021/10/15 05:52:52;;;;;;;13.25;8.30;;;;;;;8.73;67.98;98994.50;5094848;28;20020;-54
2021/10/15 05:55:16;;;;;;;18.38;8.38;;;;;;;8.68;67.71;98992.44;5091519;28;20032;-55
2021/10/15 06:00:25;;;;;;;13.98;8.25;;;;;;;8.68;67.46;98994.25;5093659;28;20024;-55
2021/10/15 06:02:51;;;;;;;15.73;8.60;;;;;;;8.66;67.27;98997.03;5094512;28;20166;-54
2021/10/15 06:14:16;;;;;;;17.90;10.95;;;;;;;8.79;67.23;99010.31;5051999;28;20047;-54
2021/10/15 06:16:47;;;;;;;19.42;11.07;;;;;;;8.88;68.47;99011.00;5051633;28;20491;-55
2021/10/15 06:19:15;;;;;;;42.72;10.70;;;;;;;8.92;68.09;99021.94;5051834;28;20077;-55
2021/10/15 06:21:41;;;;;;;16.98;8.15;;;;;;;9.03;67.96;99020.66;5051367;28;20044;-56
2021/10/15 06:24:07;;;;;;;21.83;10.48;;;;;;;9.25;67.50;99018.91;5051764;28;20499;-55
2021/10/15 06:26:33;;;;;;;21.73;10.57;;;;;;;9.50;66.94;99020.22;5051625;28;20166;-54
2021/10/15 06:28:59;;;;;;;18.73;11.25;;;;;;;9.56;65.62;99018.69;5051625;28;20032;-54
2021/10/15 06:31:24;;;;;;;16.02;10.98;;;;;;;9.57;65.07;99015.03;5051540;28;20506;-55
2021/10/15 06:33:50;;;;;;;15.20;9.85;;;;;;;9.56;64.72;99016.06;5051514;28;20029;-55
2021/10/15 06:36:16;;;;;;;14.57;9.13;;;;;;;9.58;64.82;99017.50;5051507;28;20434;-55
2021/10/15 06:38:42;;;;;;;25.15;11.57;;;;;;;9.63;64.33;99016.94;5051425;28;20084;-54
2021/10/15 06:41:07;;;;;;;21.33;10.60;;;;;;;9.79;64.56;99021.13;5051334;28;20021;-54
2021/10/15 06:43:33;;;;;;;28.73;8.27;;;;;;;10.44;64.48;99029.75;5054941;28;20036;-54
2021/10/15 06:45:59;;;;;;;24.48;11.23;;;;;;;11.71;62.43;99020.69;5094034;28;20063;-54
2021/10/15 06:48:25;;;;;;;21.90;9.43;;;;;;;12.98;58.76;99023.28;5092403;28;20040;-55
2021/10/15 06:50:51;;;;;;;27.40;8.98;;;;;;;13.97;55.78;99015.91;5093458;28;20024;-54
2021/10/15 06:53:17;;;;;;;23.42;8.65;;;;;;;14.68;53.04;99012.06;5093470;28;20397;-52
2021/10/15 06:55:42;;;;;;;13.02;9.40;;;;;;;14.85;51.82;99009.69;5093517;28;20039;-52
2021/10/15 06:58:11;;;;;;;21.30;9.80;;;;;;;15.13;52.30;99009.16;5092273;28;20031;-54
2021/10/15 07:00:37;;;;;;;23.95;8.98;;;;;;;15.22;51.71;99009.66;5093428;28;20032;-53
2021/10/15 07:03:12;;;;;;;16.73;7.75;;;;;;;15.26;51.42;99004.72;5092046;28;20024;-52
2021/10/15 07:05:38;;;;;;;10.43;7.80;;;;;;;15.24;50.46;98998.88;5093629;28;20393;-52
2021/10/15 07:08:04;;;;;;;15.95;8.40;;;;;;;15.14;50.29;99000.19;5093355;28;20029;-52
2021/10/15 07:10:30;;;;;;;27.27;16.55;;;;;;;15.46;50.62;99000.00;5092067;28;20020;-52
2021/10/15 07:12:56;;;;;;;53.40;35.28;;;;;;;15.76;48.75;98993.91;5093142;28;20020;-52
2021/10/15 07:15:25;;;;;;;74.95;61.35;;;;;;;15.77;48.49;99004.28;5093182;28;20034;-51
2021/10/15 07:17:51;;;;;;;39.63;29.67;;;;;;;15.60;48.40;98995.31;5093367;28;20019;-53
2021/10/15 07:20:16;;;;;;;26.20;17.52;;;;;;;15.55;48.61;98995.19;5092795;28;20505;-51
2021/10/15 07:22:42;;;;;;;19.80;10.35;;;;;;;15.41;49.01;98989.25;5092899;28;20141;-53
2021/10/15 07:25:09;;;;;;;16.02;11.70;;;;;;;15.36;48.70;98991.78;5092946;28;20032;-53
2021/10/15 07:27:36;;;;;;;15.27;7.80;;;;;;;15.25;49.20;98998.66;5092946;28;20106;-52
2021/10/15 07:30:04;;;;;;;15.95;8.20;;;;;;;15.10;49.21;98999.00;5093740;28;20024;-51
2021/10/15 07:32:31;;;;;;;16.95;7.60;;;;;;;15.10;49.13;99003.50;5091552;28;20028;-51
2021/10/15 07:34:57;;;;;;;15.15;8.80;;;;;;;15.23;49.24;99002.53;5092810;28;20024;-52
2021/10/15 07:37:25;;;;;;;16.58;7.57;;;;;;;15.55;48.61;99000.47;5092936;28;20367;-54
2021/10/15 07:39:52;;;;;;;18.30;8.85;;;;;;;15.59;48.41;98999.00;5091849;28;20359;-53
2021/10/15 07:42:17;;;;;;;14.32;7.78;;;;;;;15.85;48.47;98997.81;5091380;28;20046;-51
2021/10/15 07:44:43;;;;;;;12.68;7.32;;;;;;;16.31;47.45;98992.81;5092597;28;20566;-52
2021/10/15 07:49:43;;;;;;;15.65;8.25;;;;;;;17.12;46.40;98992.97;5050938;28;20059;-51
2021/10/15 07:52:08;;;;;;;45.30;26.73;;;;;;;17.87;44.47;98991.19;5052271;28;20025;-51
2021/10/15 07:54:35;;;;;;;19.42;9.52;;;;;;;18.40;42.98;98992.53;5052224;28;20450;-51
2021/10/15 07:57:04;;;;;;;16.25;9.23;;;;;;;19.09;42.27;98991.31;5052109;28;20109;-51
2021/10/15 07:59:30;;;;;;;15.82;8.60;;;;;;;19.34;41.47;98999.59;5052107;28;20111;-52
2021/10/15 08:01:56;;;;;;;19.25;11.75;;;;;;;19.97;40.32;98993.81;5052080;28;20474;-52
2021/10/15 08:04:22;;;;;;;14.43;7.40;;;;;;;20.70;38.84;98990.59;5033509;28;20035;-52
2021/10/15 08:06:49;;;;;;;8.02;7.00;;;;;;;21.24;37.73;98995.63;5052039;28;20087;-51
2021/10/15 08:09:15;;;;;;;29.17;7.70;;;;;;;21.92;37.09;98990.13;5052232;28;20466;-51
2021/10/15 08:11:41;;;;;;;11.95;7.25;;;;;;;22.57;35.29;98978.06;5051951;28;20060;-49
2021/10/15 08:14:07;;;;;;;13.48;7.72;;;;;;;22.56;34.82;98977.25;5051943;28;20025;-49
2021/10/15 08:16:32;;;;;;;10.20;6.32;;;;;;;22.64;34.14;98979.38;5051868;28;20025;-50
2021/10/15 08:18:58;;;;;;;35.13;7.00;;;;;;;22.66;34.84;98977.22;5051841;28;20067;-50
2021/10/15 08:21:24;;;;;;;14.23;6.53;;;;;;;22.57;33.78;98986.09;5051787;28;20029;-48
2021/10/15 08:23:51;;;;;;;10.00;5.43;;;;;;;22.19;34.76;98977.56;5051667;28;20044;-50
2021/10/15 08:26:17;;;;;;;15.25;6.03;;;;;;;22.18;34.85;98984.00;5051776;28;20033;-48
2021/10/15 08:28:45;;;;;;;12.20;5.60;;;;;;;22.31;34.74;98973.56;5033817;28;20025;-48
2021/10/15 08:31:12;;;;;;;12.40;6.10;;;;;;;22.55;34.47;98975.66;5051739;28;20013;-49
2021/10/15 08:33:39;;;;;;;13.48;5.00;;;;;;;23.09;33.91;98977.63;5051884;28;20025;-50
2021/10/15 08:36:05;;;;;;;20.85;5.60;;;;;;;23.66;32.94;98980.78;5051581;28;20021;-49
2021/10/15 08:38:30;;;;;;;11.40;5.40;;;;;;;24.38;32.05;98977.47;5051649;28;20091;-50
2021/10/15 08:40:56;;;;;;;20.83;6.13;;;;;;;24.77;31.53;98976.56;5051741;28;20505;-49
2021/10/15 08:43:42;;;;;;;27.52;5.82;;;;;;;24.85;31.61;98981.28;5051596;28;20033;-49
2021/10/15 08:46:08;;;;;;;15.98;6.47;;;;;;;25.02;31.16;98988.06;5051277;28;20072;-49
2021/10/15 08:48:39;;;;;;;9.07;4.65;;;;;;;25.57;30.56;98983.00;5050127;28;20080;-49
2021/10/15 08:51:07;;;;;;;11.95;5.65;;;;;;;25.96;29.34;98984.59;5051535;28;20060;-50
2021/10/15 08:53:49;;;;;;;6.35;4.20;;;;;;;26.13;29.40;98985.94;5050262;28;20025;-50
2021/10/15 08:56:17;;;;;;;14.50;6.80;;;;;;;26.08;29.27;98984.94;5051431;28;20494;-49
2021/10/15 08:58:47;;;;;;;22.27;7.30;;;;;;;26.38;29.61;98980.09;5033569;28;20056;-49
2021/10/15 09:01:13;;;;;;;17.48;7.47;;;;;;;26.51;29.31;98973.91;5051261;28;20052;-49
2021/10/15 09:03:41;;;;;;;33.28;7.80;;;;;;;26.37;29.74;98967.72;5051402;28;20075;-50
2021/10/15 09:06:09;;;;;;;14.40;6.22;;;;;;;26.63;29.41;98975.34;5051307;28;20025;-49
2021/10/15 09:08:47;;;;;;;16.23;6.68;;;;;;;26.75;29.57;98972.94;5033396;28;20083;-50
2021/10/15 09:11:38;;;;;;;17.17;6.55;;;;;;;27.34;28.93;98967.69;5051354;28;20032;-51
2021/10/15 09:14:10;;;;;;;28.65;8.43;;;;;;;27.75;28.39;98968.59;5051582;28;20029;-48
2021/10/15 09:16:52;;;;;;;14.13;6.40;;;;;;;28.17;27.22;98969.22;5055141;28;20578;-48
2021/10/15 09:19:45;;;;;;;13.55;5.53;;;;;;;28.42;26.94;98960.44;5055207;28;20021;-50
2021/10/15 09:22:30;;;;;;;19.95;6.80;;;;;;;28.63;26.85;98958.00;5054657;28;20039;-49
2021/10/15 09:24:56;;;;;;;16.80;5.85;;;;;;;28.89;26.07;98951.84;5037132;28;20021;-49
2021/10/15 09:27:24;;;;;;;25.80;6.68;;;;;;;28.88;26.32;98951.06;5054892;28;20044;-50
2021/10/15 09:30:06;;;;;;;46.05;7.85;;;;;;;28.87;26.57;98945.97;5055040;28;20455;-49
2021/10/15 09:32:37;;;;;;;17.95;5.47;;;;;;;28.55;26.39;98945.25;5054902;28;20029;-49
2021/10/15 09:35:05;;;;;;;11.15;5.63;;;;;;;28.39;25.85;98954.84;5054912;28;20021;-49
2021/10/15 09:37:33;;;;;;;8.13;4.38;;;;;;;28.20;25.71;98955.09;5054863;28;20513;-49
2021/10/15 09:40:09;;;;;;;7.95;4.10;;;;;;;27.49;25.94;98958.47;5054736;28;20067;-48
2021/10/15 09:42:41;;;;;;;10.35;4.68;;;;;;;27.07;26.14;98955.84;5054700;28;20029;-48
2021/10/15 09:45:14;;;;;;;11.95;4.95;;;;;;;26.84;27.45;98949.63;5053435;28;20029;-49
2021/10/15 09:47:46;;;;;;;8.73;4.50;;;;;;;26.86;26.77;98944.72;5054317;28;20502;-49
2021/10/15 09:50:17;;;;;;;15.68;4.60;;;;;;;26.51;26.74;98947.00;5054635;28;20061;-49
2021/10/15 09:52:51;;;;;;;19.65;4.57;;;;;;;25.99;27.21;98950.94;5054578;28;20017;-50
2021/10/15 09:55:31;;;;;;;7.43;5.00;;;;;;;25.28;27.78;98943.69;5036654;28;20417;-48
2021/10/15 09:58:19;;;;;;;12.35;3.58;;;;;;;24.25;29.61;98936.03;5054490;28;20028;-50
2021/10/15 10:00:50;;;;;;;10.07;6.18;;;;;;;24.23;30.18;98937.41;5054296;28;20491;-49
2021/10/15 10:03:19;;;;;;;12.07;4.90;;;;;;;24.79;29.90;98931.44;5036371;28;20135;-49
2021/10/15 10:05:45;;;;;;;6.60;4.63;;;;;;;24.71;29.71;98932.06;5054286;28;20029;-50
2021/10/15 10:08:11;;;;;;;18.55;3.95;;;;;;;24.79;29.12;98925.25;5036374;28;20028;-49
2021/10/15 10:10:39;;;;;;;6.88;4.82;;;;;;;24.27;29.94;98922.34;5054204;28;20403;-49
2021/10/15 10:13:08;;;;;;;9.27;3.80;;;;;;;24.50;29.66;98918.88;5054183;28;20033;-50
2021/10/15 10:15:38;;;;;;;8.98;6.30;;;;;;;24.89;29.19;98914.38;5053992;28;20048;-50
2021/10/15 10:20:52;;;;;;;7.63;3.60;;;;;;;26.20;27.40;98914.50;5036657;28;20067;-50
2021/10/15 10:23:29;;;;;;;6.68;3.90;;;;;;;26.93;27.58;98903.91;5053835;28;20033;-49
2021/10/15 10:25:58;;;;;;;9.80;4.40;;;;;;;27.63;26.77;98899.09;5053268;28;20024;-50
2021/10/15 10:28:25;;;;;;;8.55;4.47;;;;;;;28.45;26.44;98900.44;5053798;28;20075;-50
2021/10/15 10:30:54;;;;;;;11.05;5.10;;;;;;;28.55;26.18;98909.34;5035947;28;20116;-49
2021/10/15 10:33:21;;;;;;;6.88;3.85;;;;;;;28.46;26.42;98896.59;5053792;28;20510;-50
2021/10/15 10:35:49;;;;;;;15.77;7.43;;;;;;;28.74;26.16;98890.97;5053948;28;20025;-51
2021/10/15 10:38:21;;;;;;;11.55;6.00;;;;;;;28.72;26.36;98885.09;5053991;28;20368;-50
2021/10/15 10:41:02;;;;;;;8.68;4.93;;;;;;;28.94;25.91;98884.16;5053587;28;20056;-50
2021/10/15 10:43:54;;;;;;;12.68;3.97;;;;;;;29.06;25.82;98883.53;5053845;28;20403;-50
2021/10/15 10:46:29;;;;;;;6.20;3.67;;;;;;;29.03;26.00;98876.06;5022605;28;20033;-50
2021/10/15 10:48:54;;;;;;;13.70;5.28;;;;;;;29.41;25.70;98886.22;5053199;28;20599;-50
2021/10/15 10:51:31;;;;;;;7.15;3.70;;;;;;;29.35;25.32;98890.22;5053431;28;20119;-50
2021/10/15 10:56:52;;;;;;;9.85;3.40;;;;;;;28.93;25.77;98892.56;5053347;28;20040;-49
2021/10/15 10:59:26;;;;;;;7.45;3.70;;;;;;;29.32;25.49;98882.72;5035404;28;20029;-51
2021/10/15 11:01:58;;;;;;;;;;;;;;;30.12;25.72;98893.06;5053605;28;20028;-50
2021/10/15 11:04:38;;;;;;;5.43;3.33;;;;;;;30.49;24.46;98885.28;5053133;28;19995;-49
2021/10/15 11:07:07;;;;;;;10.02;3.30;;;;;;;30.23;24.38;98883.47;5053182;28;20095;-48
2021/10/15 11:09:42;;;;;;;10.57;4.05;;;;;;;29.72;24.89;98880.63;5053108;28;20057;-50
2021/10/15 11:12:13;;;;;;;9.07;3.50;;;;;;;29.85;25.10;98874.22;5053017;28;20499;-50
2021/10/15 11:15:02;;;;;;;5.93;4.03;;;;;;;30.33;24.38;98877.72;5053121;28;20063;-49
2021/10/15 11:17:33;;;;;;;8.95;3.35;;;;;;;29.99;24.62;98871.31;5052921;28;20033;-49
2021/10/15 11:20:13;;;;;;;11.65;4.68;;;;;;;28.84;25.51;98874.47;5052995;28;20025;-50
2021/10/15 11:22:42;;;;;;;6.68;3.70;;;;;;;28.36;25.94;98863.72;5052758;28;20029;-51
2021/10/15 11:25:10;;;;;;;9.05;3.70;;;;;;;28.25;26.52;98863.19;5052812;28;20022;-50
2021/10/15 11:27:37;;;;;;;10.40;4.18;;;;;;;28.21;26.78;98864.91;5052744;28;20027;-50
2021/10/15 11:30:07;;;;;;;8.07;4.15;;;;;;;28.25;26.38;98857.78;5052712;28;20047;-49
2021/10/15 11:32:42;;;;;;;7.38;3.50;;;;;;;28.22;26.58;98853.81;5052705;28;20017;-50
2021/10/15 11:35:12;;;;;;;9.70;4.35;;;;;;;27.91;27.18;98845.78;5052578;28;20128;-49
2021/10/15 11:37:49;;;;;;;6.07;3.20;;;;;;;27.00;28.19;98845.00;5051908;28;20475;-50
2021/10/15 11:40:24;;;;;;;6.82;3.35;;;;;;;26.35;28.78;98848.81;5052386;28;20029;-50
2021/10/15 11:42:51;;;;;;;6.25;3.65;;;;;;;25.62;29.99;98851.25;5052641;28;20465;-50
2021/10/15 11:45:25;;;;;;;6.93;3.53;;;;;;;25.81;29.99;98851.16;5052311;28;20029;-49
2021/10/15 11:48:05;;;;;;;4.55;3.40;;;;;;;26.31;29.58;98842.44;5034366;28;20052;-49
2021/10/15 11:50:32;;;;;;;4.82;3.22;;;;;;;26.44;29.55;98846.22;5050994;28;20052;-49
2021/10/15 11:52:59;;;;;;;3.30;3.00;;;;;;;26.48;29.74;98842.63;5052330;28;20556;-49